createdAt,value
2022-10-31T00:01:15.159Z,9.48
2022-10-31T00:03:41.767Z,9.44
2022-10-31T00:06:08.346Z,9.41
2022-10-31T00:08:35.400Z,9.43
2022-10-31T00:11:02.196Z,9.51
2022-10-31T00:13:28.868Z,9.50
2022-10-31T00:15:55.557Z,9.50
2022-10-31T00:18:22.444Z,9.56
2022-10-31T00:20:49.173Z,9.57
2022-10-31T00:23:15.763Z,9.54
2022-10-31T00:25:42.386Z,9.50
2022-10-31T00:28:12.052Z,9.46
2022-10-31T00:30:38.715Z,9.44
2022-10-31T00:33:06.283Z,9.42
2022-10-31T00:35:33.358Z,9.45
2022-10-31T00:38:00.318Z,9.43
2022-10-31T00:40:26.978Z,9.44
2022-10-31T00:42:54.269Z,9.45
2022-10-31T00:45:21.075Z,9.51
2022-10-31T00:47:48.134Z,9.54
2022-10-31T00:50:14.800Z,9.53
2022-10-31T00:52:41.448Z,9.55
2022-10-31T00:55:08.352Z,9.63
2022-10-31T00:57:35.082Z,9.63
2022-10-31T01:00:04.201Z,9.62
2022-10-31T01:02:30.962Z,9.59
2022-10-31T01:04:57.704Z,9.59
2022-10-31T01:07:24.402Z,9.61
2022-10-31T01:09:51.012Z,9.59
2022-10-31T01:12:17.707Z,9.62
2022-10-31T01:14:46.021Z,9.69
2022-10-31T01:17:14.345Z,9.74
2022-10-31T01:19:41.295Z,9.83
2022-10-31T01:22:08.155Z,9.85
2022-10-31T01:24:34.847Z,9.87
2022-10-31T01:27:02.750Z,9.78
2022-10-31T01:29:32.673Z,9.86
2022-10-31T01:31:59.783Z,9.91
2022-10-31T01:34:26.886Z,9.89
2022-10-31T01:36:53.794Z,9.89
2022-10-31T01:39:21.960Z,9.94
2022-10-31T01:41:51.907Z,9.98
2022-10-31T01:44:18.463Z,9.95
2022-10-31T01:46:59.019Z,9.84
2022-10-31T01:49:37.377Z,9.75
2022-10-31T01:52:37.681Z,9.77
2022-10-31T01:55:13.089Z,9.81
2022-10-31T01:57:43.435Z,9.79
2022-10-31T02:00:11.133Z,9.74
2022-10-31T02:02:41.644Z,9.73
2022-10-31T02:05:13.642Z,9.75
2022-10-31T02:08:00.748Z,9.80
2022-10-31T02:10:32.610Z,9.90
2022-10-31T02:13:02.924Z,9.89
2022-10-31T02:15:32.846Z,9.78
2022-10-31T02:18:00.620Z,9.80
2022-10-31T02:20:33.490Z,9.81
2022-10-31T02:23:29.589Z,9.88
2022-10-31T02:25:59.607Z,9.71
2022-10-31T02:28:45.728Z,9.63
2022-10-31T02:31:18.320Z,9.65
2022-10-31T02:33:53.227Z,9.58
2022-10-31T02:36:54.031Z,9.55
2022-10-31T02:39:27.799Z,9.55
2022-10-31T02:42:00.480Z,9.58
2022-10-31T02:44:46.426Z,9.61
2022-10-31T02:47:17.616Z,9.58
2022-10-31T02:50:17.184Z,9.63
2022-10-31T02:52:43.816Z,9.69
2022-10-31T02:55:25.547Z,9.68
2022-10-31T02:58:02.145Z,9.65
2022-10-31T03:00:39.055Z,9.60
2022-10-31T03:03:24.580Z,9.60
2022-10-31T03:05:51.323Z,9.53
2022-10-31T03:08:50.326Z,9.60
2022-10-31T03:11:22.208Z,9.63
2022-10-31T03:13:58.358Z,9.56
2022-10-31T03:16:38.816Z,9.53
2022-10-31T03:19:12.639Z,9.53
2022-10-31T03:21:50.643Z,9.55
2022-10-31T03:24:17.567Z,9.57
2022-10-31T03:26:49.227Z,9.54
2022-10-31T03:29:20.516Z,9.55
2022-10-31T03:31:55.736Z,9.61
2022-10-31T03:34:23.744Z,9.57
2022-10-31T03:36:53.159Z,9.55
2022-10-31T03:39:22.916Z,9.57
2022-10-31T03:42:06.191Z,9.56
2022-10-31T03:44:35.630Z,9.54
2022-10-31T03:47:05.125Z,9.53
2022-10-31T03:49:33.826Z,9.51
2022-10-31T03:52:19.560Z,9.52
2022-10-31T03:54:52.552Z,9.56
2022-10-31T03:57:34.790Z,9.62
2022-10-31T04:00:08.346Z,9.72
2022-10-31T04:02:54.901Z,9.66
2022-10-31T04:05:22.449Z,9.59
2022-10-31T04:07:54.496Z,9.59
2022-10-31T04:10:23.240Z,9.61
2022-10-31T04:12:57.988Z,9.61
2022-10-31T04:15:33.342Z,9.59
2022-10-31T04:18:02.586Z,9.50
2022-10-31T04:20:49.628Z,9.46
2022-10-31T04:23:23.454Z,9.43
2022-10-31T04:25:51.265Z,9.44
2022-10-31T04:30:51.593Z,9.40
2022-10-31T04:33:18.710Z,9.41
2022-10-31T04:35:47.404Z,9.43
2022-10-31T04:38:14.173Z,9.43
2022-10-31T04:40:41.511Z,9.43
2022-10-31T04:43:28.046Z,9.33
2022-10-31T04:45:54.809Z,9.25
2022-10-31T04:48:21.443Z,9.26
2022-10-31T04:50:48.083Z,9.32
2022-10-31T04:53:15.164Z,9.33
2022-10-31T04:56:01.986Z,9.29
2022-10-31T04:58:36.827Z,9.26
2022-10-31T05:01:07.239Z,9.27
2022-10-31T05:03:34.206Z,9.28
2022-10-31T05:06:00.804Z,9.29
2022-10-31T05:08:27.955Z,9.29
2022-10-31T05:10:57.370Z,9.30
2022-10-31T05:13:27.396Z,9.38
2022-10-31T05:16:12.339Z,9.39
2022-10-31T05:18:44.635Z,9.50
2022-10-31T05:21:29.157Z,9.37
2022-10-31T05:24:00.034Z,9.28
2022-10-31T05:26:27.594Z,9.16
2022-10-31T05:28:55.240Z,9.05
2022-10-31T05:31:22.049Z,8.94
2022-10-31T05:33:50.363Z,8.87
2022-10-31T05:36:25.956Z,8.87
2022-10-31T05:38:57.212Z,8.88
2022-10-31T05:41:26.117Z,8.81
2022-10-31T05:44:01.032Z,8.74
2022-10-31T05:46:30.001Z,8.72
2022-10-31T05:49:34.886Z,8.76
2022-10-31T05:52:20.157Z,8.83
2022-10-31T05:54:54.378Z,8.84
2022-10-31T05:57:21.608Z,8.81
2022-10-31T05:59:52.418Z,8.81
2022-10-31T06:02:22.739Z,8.74
2022-10-31T06:05:16.143Z,8.72
2022-10-31T06:07:43.350Z,8.73
2022-10-31T06:10:10.161Z,8.72
2022-10-31T06:12:41.669Z,8.67
2022-10-31T06:15:31.247Z,8.74
2022-10-31T06:18:04.204Z,8.87
2022-10-31T06:20:35.020Z,8.92
2022-10-31T06:23:04.585Z,8.99
2022-10-31T06:25:33.857Z,9.14
2022-10-31T06:28:00.665Z,9.28
2022-10-31T06:30:36.601Z,9.24
2022-10-31T06:33:05.377Z,9.23
2022-10-31T06:35:35.933Z,9.19
2022-10-31T06:38:02.790Z,9.19
2022-10-31T06:40:41.711Z,9.68
2022-10-31T06:43:24.092Z,9.71
2022-10-31T06:46:03.810Z,9.77
2022-10-31T06:48:46.022Z,9.90
2022-10-31T06:51:35.690Z,10.51
2022-10-31T06:54:02.438Z,10.92
2022-10-31T06:56:29.165Z,11.07
2022-10-31T06:58:57.847Z,11.20
2022-10-31T07:01:43.379Z,11.64
2022-10-31T07:04:11.517Z,11.66
2022-10-31T07:06:38.538Z,11.54
2022-10-31T07:09:05.812Z,11.68
2022-10-31T07:11:32.470Z,11.94
2022-10-31T07:13:59.749Z,12.11
2022-10-31T07:16:26.997Z,12.39
2022-10-31T07:18:53.804Z,12.65
2022-10-31T07:21:20.897Z,12.74
2022-10-31T07:23:50.636Z,12.83
2022-10-31T07:26:43.370Z,12.93
2022-10-31T07:29:10.656Z,12.90
2022-10-31T07:31:37.380Z,12.92
2022-10-31T07:34:10.449Z,12.96
2022-10-31T07:36:55.260Z,13.00
2022-10-31T07:39:21.838Z,13.09
2022-10-31T07:41:48.408Z,13.15
2022-10-31T07:44:18.713Z,13.32
2022-10-31T07:47:05.260Z,13.50
2022-10-31T07:49:50.490Z,13.57
2022-10-31T07:52:35.945Z,13.72
2022-10-31T07:55:21.168Z,13.85
2022-10-31T07:57:57.150Z,14.02
2022-10-31T08:00:24.051Z,14.13
2022-10-31T08:02:58.451Z,14.23
2022-10-31T08:05:45.805Z,14.33
2022-10-31T08:08:47.514Z,14.50
2022-10-31T08:11:14.146Z,14.61
2022-10-31T08:13:41.441Z,14.69
2022-10-31T08:16:09.513Z,14.83
2022-10-31T08:18:43.511Z,14.96
2022-10-31T08:21:13.572Z,15.10
2022-10-31T08:23:40.169Z,15.19
2022-10-31T08:26:07.865Z,15.23
2022-10-31T08:28:34.534Z,15.28
2022-10-31T08:31:01.222Z,15.31
2022-10-31T08:33:40.087Z,15.37
2022-10-31T08:36:18.654Z,15.35
2022-10-31T08:39:12.232Z,15.40
2022-10-31T08:41:39.543Z,15.49
2022-10-31T08:44:10.646Z,15.54
2022-10-31T08:46:37.590Z,15.60
2022-10-31T08:49:04.324Z,15.70
2022-10-31T08:51:30.986Z,15.67
2022-10-31T08:53:57.804Z,15.67
2022-10-31T08:56:56.866Z,15.75
2022-10-31T08:59:44.839Z,15.93
2022-10-31T09:02:20.364Z,15.87
2022-10-31T09:04:49.134Z,16.02
2022-10-31T09:07:20.939Z,16.09
2022-10-31T09:09:48.234Z,16.05
2022-10-31T09:12:15.003Z,16.03
2022-10-31T09:15:08.324Z,16.02
2022-10-31T09:17:47.821Z,16.03
2022-10-31T09:20:34.555Z,16.05
2022-10-31T09:23:07.125Z,16.14
2022-10-31T09:25:36.243Z,16.09
2022-10-31T09:28:28.621Z,16.07
2022-10-31T09:30:59.364Z,16.20
2022-10-31T09:33:44.762Z,16.13
2022-10-31T09:36:31.291Z,16.14
2022-10-31T09:38:58.011Z,16.09
2022-10-31T09:41:42.974Z,15.95
2022-10-31T09:44:27.964Z,15.98
2022-10-31T09:47:28.078Z,16.10
2022-10-31T09:50:23.052Z,16.11
2022-10-31T09:52:55.830Z,16.23
2022-10-31T09:55:48.076Z,16.23
2022-10-31T09:58:21.070Z,16.25
2022-10-31T10:00:49.263Z,16.35
2022-10-31T10:03:34.151Z,16.21
2022-10-31T10:06:20.378Z,16.22
2022-10-31T10:09:05.860Z,16.34
2022-10-31T10:12:20.962Z,16.58
2022-10-31T10:15:15.186Z,16.40
2022-10-31T10:18:01.651Z,16.39
2022-10-31T10:21:00.325Z,16.64
2022-10-31T10:23:29.595Z,16.60
2022-10-31T10:26:11.205Z,16.59
2022-10-31T10:28:41.868Z,16.53
2022-10-31T10:31:14.175Z,16.53
2022-10-31T10:33:58.835Z,16.56
2022-10-31T10:36:43.768Z,16.59
2022-10-31T10:39:46.280Z,16.65
2022-10-31T10:42:34.883Z,16.63
2022-10-31T10:45:33.254Z,16.68
2022-10-31T10:48:11.275Z,16.70
2022-10-31T10:50:49.292Z,16.91
2022-10-31T10:54:10.431Z,16.86
2022-10-31T10:56:37.241Z,16.73
2022-10-31T10:59:04.754Z,16.87
2022-10-31T11:01:31.369Z,16.82
2022-10-31T11:03:58.041Z,16.84
2022-10-31T11:06:29.126Z,16.87
2022-10-31T11:08:55.730Z,16.83
2022-10-31T11:11:31.976Z,16.88
2022-10-31T11:14:13.189Z,16.98
2022-10-31T11:16:43.331Z,17.06
2022-10-31T11:19:18.745Z,17.11
2022-10-31T11:21:52.659Z,17.06
2022-10-31T11:24:27.376Z,17.11
2022-10-31T11:27:12.540Z,17.16
2022-10-31T11:29:39.103Z,17.04
2022-10-31T11:32:05.741Z,17.07
2022-10-31T11:34:46.843Z,17.12
2022-10-31T11:37:18.151Z,17.06
2022-10-31T11:39:54.440Z,16.99
2022-10-31T11:42:27.654Z,16.92
2022-10-31T11:44:55.951Z,17.01
2022-10-31T11:47:33.567Z,17.08
2022-10-31T11:50:09.733Z,17.09
2022-10-31T11:52:40.631Z,17.09
2022-10-31T11:55:13.209Z,17.11
2022-10-31T11:57:47.670Z,17.16
2022-10-31T12:03:39.621Z,17.14
2022-10-31T12:06:13.161Z,17.16
2022-10-31T12:08:42.155Z,17.11
2022-10-31T12:11:30.513Z,17.09
2022-10-31T12:14:08.565Z,17.04
2022-10-31T12:16:42.979Z,17.09
2022-10-31T12:19:35.927Z,17.22
2022-10-31T12:22:10.294Z,17.21
2022-10-31T12:24:38.013Z,17.34
2022-10-31T12:27:49.574Z,17.39
2022-10-31T12:30:41.830Z,17.36
2022-10-31T12:33:19.263Z,17.48
2022-10-31T12:36:04.788Z,17.47
2022-10-31T12:38:42.219Z,17.62
2022-10-31T12:41:24.131Z,17.50
2022-10-31T12:44:11.800Z,17.54
2022-10-31T12:46:57.461Z,17.58
2022-10-31T12:49:43.700Z,17.55
2022-10-31T12:52:28.471Z,17.65
2022-10-31T12:55:01.096Z,17.60
2022-10-31T12:57:52.215Z,17.66
2022-10-31T13:00:20.473Z,17.64
2022-10-31T13:02:47.028Z,17.56
2022-10-31T13:05:33.489Z,17.57
2022-10-31T13:08:09.541Z,17.51
2022-10-31T13:11:07.124Z,17.52
2022-10-31T13:13:45.298Z,17.38
2022-10-31T13:16:17.516Z,17.27
2022-10-31T13:18:54.655Z,17.22
2022-10-31T13:21:26.164Z,17.20
2022-10-31T13:23:53.319Z,17.17
2022-10-31T13:26:41.930Z,17.18
2022-10-31T13:29:32.691Z,17.18
2022-10-31T13:32:01.909Z,17.22
2022-10-31T13:34:33.735Z,17.27
2022-10-31T13:37:25.141Z,17.14
2022-10-31T13:40:25.242Z,16.99
2022-10-31T13:43:03.865Z,16.84
2022-10-31T13:45:30.643Z,16.82
2022-10-31T13:48:07.388Z,16.81
2022-10-31T13:50:34.289Z,16.78
2022-10-31T13:53:21.840Z,16.84
2022-10-31T13:55:51.420Z,16.80
2022-10-31T13:58:23.465Z,16.82
2022-10-31T14:01:11.776Z,16.78
2022-10-31T14:06:40.950Z,16.80
2022-10-31T14:09:20.699Z,16.88
2022-10-31T14:11:49.287Z,17.00
2022-10-31T14:14:16.946Z,17.06
2022-10-31T14:16:47.752Z,17.02
2022-10-31T14:19:21.814Z,16.97
2022-10-31T14:21:50.241Z,16.88
2022-10-31T14:24:31.982Z,16.78
2022-10-31T14:27:27.255Z,16.61
2022-10-31T14:29:53.938Z,16.51
2022-10-31T14:32:26.578Z,16.51
2022-10-31T14:34:56.387Z,16.51
2022-10-31T14:37:53.743Z,16.59
2022-10-31T14:40:23.093Z,16.71
2022-10-31T14:42:49.630Z,16.81
2022-10-31T14:45:23.175Z,16.98
2022-10-31T14:48:06.882Z,17.08
2022-10-31T14:50:54.166Z,17.15
2022-10-31T14:53:24.753Z,17.13
2022-10-31T14:55:54.921Z,17.03
2022-10-31T14:58:26.079Z,16.83
2022-10-31T15:00:57.377Z,16.67
2022-10-31T15:03:28.356Z,16.44
2022-10-31T15:05:59.251Z,16.40
2022-10-31T15:08:33.575Z,16.43
2022-10-31T15:11:04.562Z,16.35
2022-10-31T15:13:31.306Z,16.20
2022-10-31T15:15:58.150Z,16.11
2022-10-31T15:18:27.164Z,16.06
2022-10-31T15:20:56.144Z,16.13
2022-10-31T15:23:26.225Z,16.15
2022-10-31T15:26:00.802Z,16.25
2022-10-31T15:28:28.645Z,16.24
2022-10-31T15:30:59.757Z,16.17
2022-10-31T15:33:38.352Z,16.25
2022-10-31T15:36:06.921Z,16.26
2022-10-31T15:38:33.989Z,16.18
2022-10-31T15:41:04.445Z,15.99
2022-10-31T15:43:37.453Z,15.95
2022-10-31T15:46:07.794Z,15.90
2022-10-31T15:48:35.608Z,15.75
2022-10-31T15:51:03.518Z,15.64
2022-10-31T15:53:46.047Z,15.60
2022-10-31T15:56:21.290Z,15.45
2022-10-31T15:58:50.559Z,15.22
2022-10-31T16:01:35.401Z,15.17
2022-10-31T16:04:23.307Z,15.13
2022-10-31T16:07:23.678Z,15.05
2022-10-31T16:09:59.855Z,14.90
2022-10-31T16:12:38.618Z,14.91
2022-10-31T16:15:16.072Z,14.93
2022-10-31T16:17:46.314Z,14.98
2022-10-31T16:20:29.975Z,14.99
2022-10-31T16:22:58.712Z,15.03
2022-10-31T16:25:35.084Z,14.99
2022-10-31T16:28:18.251Z,14.95
2022-10-31T16:30:50.226Z,14.83
2022-10-31T16:33:37.305Z,14.74
2022-10-31T16:36:35.309Z,14.62
2022-10-31T16:39:03.824Z,14.45
2022-10-31T16:41:30.485Z,14.22
2022-10-31T16:43:57.122Z,13.98
2022-10-31T16:46:28.567Z,13.54
2022-10-31T16:48:55.495Z,13.22
2022-10-31T16:51:22.275Z,12.94
2022-10-31T16:53:52.063Z,12.87
2022-10-31T16:56:25.061Z,12.77
2022-10-31T16:58:51.706Z,12.73
2022-10-31T17:01:18.435Z,12.63
2022-10-31T17:03:45.175Z,12.57
2022-10-31T17:06:13.607Z,12.26
2022-10-31T17:08:40.505Z,12.04
2022-10-31T17:11:14.638Z,11.88
2022-10-31T17:13:41.401Z,11.75
2022-10-31T17:16:08.326Z,11.76
2022-10-31T17:18:34.951Z,11.84
2022-10-31T17:21:04.529Z,11.81
2022-10-31T17:23:33.267Z,11.97
2022-10-31T17:26:00.283Z,12.06
2022-10-31T17:28:27.123Z,12.06
2022-10-31T17:30:59.158Z,11.88
2022-10-31T17:33:25.902Z,11.75
2022-10-31T17:35:52.480Z,11.66
2022-10-31T17:38:19.225Z,11.49
2022-10-31T17:40:46.068Z,11.25
2022-10-31T17:43:12.842Z,11.30
2022-10-31T17:45:40.944Z,11.23
2022-10-31T17:48:10.748Z,11.13
2022-10-31T17:50:37.383Z,10.82
2022-10-31T17:53:04.362Z,10.56
2022-10-31T17:55:36.098Z,10.44
2022-10-31T17:58:04.872Z,10.57
2022-10-31T18:00:31.563Z,10.83
2022-10-31T18:02:58.354Z,11.12
2022-10-31T18:05:25.313Z,11.36
2022-10-31T18:07:51.987Z,11.48
2022-10-31T18:10:18.674Z,11.45
2022-10-31T18:12:45.576Z,11.32
2022-10-31T18:15:12.175Z,11.15
2022-10-31T18:17:42.017Z,11.25
2022-10-31T18:20:09.885Z,11.67
2022-10-31T18:22:36.890Z,11.82
2022-10-31T18:25:04.122Z,11.84
2022-10-31T18:27:30.714Z,12.02
2022-10-31T18:29:57.360Z,12.25
2022-10-31T18:32:24.022Z,12.40
2022-10-31T18:34:50.615Z,12.37
2022-10-31T18:37:17.287Z,12.50
2022-10-31T18:39:43.953Z,12.63
2022-10-31T18:42:10.505Z,12.69
2022-10-31T18:44:38.234Z,12.67
2022-10-31T18:47:04.909Z,12.71
2022-10-31T18:49:32.842Z,12.74
2022-10-31T18:52:00.039Z,12.72
2022-10-31T18:54:26.713Z,12.70
2022-10-31T18:56:53.424Z,12.70
2022-10-31T18:59:20.100Z,12.73
2022-10-31T19:01:46.940Z,12.66
2022-10-31T19:04:13.799Z,12.60
2022-10-31T19:06:40.471Z,12.56
2022-10-31T19:09:09.618Z,12.47
2022-10-31T19:11:37.774Z,12.44
2022-10-31T19:14:05.568Z,12.49
2022-10-31T19:16:32.156Z,12.61
2022-10-31T19:19:00.137Z,12.63
2022-10-31T19:21:27.520Z,12.49
2022-10-31T19:23:56.404Z,12.41
2022-10-31T19:26:24.804Z,12.25
2022-10-31T19:28:51.895Z,12.17
2022-10-31T19:31:19.041Z,12.37
2022-10-31T19:33:46.522Z,12.34
2022-10-31T19:36:15.434Z,12.25
2022-10-31T19:38:46.931Z,12.53
2022-10-31T19:41:19.506Z,12.85
2022-10-31T19:43:47.027Z,13.05
2022-10-31T19:46:22.218Z,13.07
2022-10-31T19:48:55.236Z,12.97
2022-10-31T19:51:22.411Z,13.09
2022-10-31T19:53:52.442Z,13.16
2022-10-31T19:56:24.697Z,13.06
2022-10-31T19:58:51.354Z,12.92
2022-10-31T20:01:23.708Z,13.09
2022-10-31T20:03:50.883Z,13.19
2022-10-31T20:06:32.890Z,13.29
2022-10-31T20:09:02.286Z,13.21
2022-10-31T20:11:29.953Z,13.31
2022-10-31T20:13:58.129Z,13.37
2022-10-31T20:16:26.172Z,13.50
2022-10-31T20:18:52.968Z,13.54
2022-10-31T20:21:25.049Z,13.57
2022-10-31T20:23:59.596Z,13.51
2022-10-31T20:26:26.963Z,13.46
2022-10-31T20:28:56.012Z,13.48
2022-10-31T20:31:25.207Z,13.55
2022-10-31T20:33:52.481Z,13.59
2022-10-31T20:36:20.997Z,13.64
2022-10-31T20:38:47.915Z,13.66
2022-10-31T20:41:15.393Z,13.66
2022-10-31T20:43:42.197Z,13.71
2022-10-31T20:46:18.017Z,13.73
2022-10-31T20:48:44.913Z,13.70
2022-10-31T20:53:42.813Z,13.65
2022-10-31T20:56:15.435Z,13.60
2022-10-31T20:58:43.450Z,13.58
2022-10-31T21:01:16.816Z,13.58
2022-10-31T21:03:44.526Z,13.62
2022-10-31T21:06:12.247Z,13.67
2022-10-31T21:08:39.913Z,13.69
2022-10-31T21:11:09.974Z,13.76
2022-10-31T21:13:40.695Z,13.83
2022-10-31T21:16:12.513Z,13.96
2022-10-31T21:18:41.242Z,14.00
2022-10-31T21:21:30.652Z,14.11
2022-10-31T21:24:05.183Z,14.14
2022-10-31T21:26:36.594Z,14.18
2022-10-31T21:29:04.917Z,14.13
2022-10-31T21:31:32.105Z,14.15
2022-10-31T21:33:58.791Z,14.18
2022-10-31T21:36:26.279Z,14.18
2022-10-31T21:38:54.384Z,14.23
2022-10-31T21:41:22.369Z,14.28
2022-10-31T21:43:51.294Z,14.30
2022-10-31T21:46:23.339Z,14.29
2022-10-31T21:48:50.122Z,14.43
2022-10-31T21:51:22.534Z,14.50
2022-10-31T21:54:08.460Z,14.53
2022-10-31T21:56:35.639Z,14.50
2022-10-31T21:59:02.731Z,14.46
2022-10-31T22:01:29.903Z,14.51
2022-10-31T22:03:57.596Z,14.52
2022-10-31T22:06:26.572Z,14.56
2022-10-31T22:08:54.448Z,14.59
2022-10-31T22:11:21.883Z,14.61
2022-10-31T22:13:49.905Z,14.57
2022-10-31T22:16:19.356Z,14.55
2022-10-31T22:18:46.930Z,14.48
2022-10-31T22:21:16.312Z,14.49
2022-10-31T22:23:43.601Z,14.49
2022-10-31T22:26:16.165Z,14.47
2022-10-31T22:28:47.984Z,14.53
2022-10-31T22:31:17.806Z,14.52
2022-10-31T22:33:45.678Z,14.58
2022-10-31T22:36:15.404Z,14.68
2022-10-31T22:38:43.019Z,14.66
2022-10-31T22:41:12.165Z,14.73
2022-10-31T22:43:39.354Z,14.74
2022-10-31T22:46:08.434Z,14.85
2022-10-31T22:48:39.039Z,14.86
2022-10-31T22:51:09.536Z,14.88
2022-10-31T22:53:37.695Z,14.90
2022-10-31T22:56:05.879Z,14.92
2022-10-31T22:58:34.303Z,14.96
2022-10-31T23:01:06.720Z,14.93
2022-10-31T23:03:33.602Z,15.03
2022-10-31T23:06:02.110Z,15.09
2022-10-31T23:08:30.152Z,15.13
2022-10-31T23:10:57.071Z,15.12
2022-10-31T23:13:42.560Z,15.15
2022-10-31T23:16:10.973Z,15.24
2022-10-31T23:18:49.683Z,15.30
2022-10-31T23:21:37.232Z,15.27
2022-10-31T23:24:04.248Z,15.23
2022-10-31T23:26:49.156Z,15.27
2022-10-31T23:29:15.754Z,15.24
2022-10-31T23:31:42.310Z,15.19
2022-10-31T23:34:09.073Z,15.17
2022-10-31T23:36:35.649Z,15.14
2022-10-31T23:39:02.304Z,15.13
2022-10-31T23:41:28.857Z,15.05
2022-10-31T23:43:55.575Z,15.00
2022-10-31T23:46:22.131Z,14.98
2022-10-31T23:48:49.541Z,15.01
2022-10-31T23:51:16.474Z,14.96
2022-10-31T23:53:46.366Z,14.97
2022-10-31T23:56:13.922Z,14.95
2022-10-31T23:58:41.075Z,14.93
